sensor_id;sensor_type;location;lat;lon;timestamp;pressure;altitude;pressure_sealevel;temperature;humidity
42691;BME280;28306;55.744;37.578;2022-08-26T00:01:31;100485.22;;;27.92;34.50
42691;BME280;28306;55.744;37.578;2022-08-26T00:03:56;100476.22;;;27.92;34.61
42691;BME280;28306;55.744;37.578;2022-08-26T00:06:23;100463.88;;;27.84;34.65
42691;BME280;28306;55.744;37.578;2022-08-26T00:08:49;100459.72;;;27.76;34.65
42691;BME280;28306;55.744;37.578;2022-08-26T00:11:15;100474.28;;;27.87;34.59
42691;BME280;28306;55.744;37.578;2022-08-26T00:13:41;100473.97;;;27.83;34.92
42691;BME280;28306;55.744;37.578;2022-08-26T00:16:08;100467.34;;;27.74;34.81
42691;BME280;28306;55.744;37.578;2022-08-26T00:18:34;100477.22;;;27.80;34.93
42691;BME280;28306;55.744;37.578;2022-08-26T00:21:01;100458.59;;;27.72;34.82
42691;BME280;28306;55.744;37.578;2022-08-26T00:23:27;100472.59;;;27.81;34.75
42691;BME280;28306;55.744;37.578;2022-08-26T00:25:53;100474.47;;;27.75;34.77
42691;BME280;28306;55.744;37.578;2022-08-26T00:28:19;100486.81;;;27.78;34.91
42691;BME280;28306;55.744;37.578;2022-08-26T00:30:45;100474.47;;;27.70;35.01
42691;BME280;28306;55.744;37.578;2022-08-26T00:33:17;100483.50;;;27.76;35.03
42691;BME280;28306;55.744;37.578;2022-08-26T00:35:45;100484.59;;;27.75;34.95
42691;BME280;28306;55.744;37.578;2022-08-26T00:38:11;100483.47;;;27.71;35.45
42691;BME280;28306;55.744;37.578;2022-08-26T00:40:43;100487.28;;;27.69;35.79
42691;BME280;28306;55.744;37.578;2022-08-26T00:43:10;100493.59;;;27.70;35.42
42691;BME280;28306;55.744;37.578;2022-08-26T00:46:01;100492.22;;;27.73;35.74
42691;BME280;28306;55.744;37.578;2022-08-26T00:48:30;100477.13;;;27.60;35.50
42691;BME280;28306;55.744;37.578;2022-08-26T00:51:07;100495.47;;;27.64;35.94
42691;BME280;28306;55.744;37.578;2022-08-26T00:53:36;100492.44;;;27.61;36.00
42691;BME280;28306;55.744;37.578;2022-08-26T00:56:09;100492.69;;;27.59;35.97
42691;BME280;28306;55.744;37.578;2022-08-26T00:58:38;100487.75;;;27.56;35.96
42691;BME280;28306;55.744;37.578;2022-08-26T01:01:08;100488.84;;;27.55;36.20
42691;BME280;28306;55.744;37.578;2022-08-26T01:03:36;100482.78;;;27.48;36.72
42691;BME280;28306;55.744;37.578;2022-08-26T01:06:02;100482.78;;;27.48;35.98
42691;BME280;28306;55.744;37.578;2022-08-26T01:08:28;100466.06;;;27.44;36.12
42691;BME280;28306;55.744;37.578;2022-08-26T01:10:55;100485.25;;;27.49;36.30
42691;BME280;28306;55.744;37.578;2022-08-26T01:13:22;100477.00;;;27.44;36.15
42691;BME280;28306;55.744;37.578;2022-08-26T01:15:51;100475.94;;;27.45;36.53
42691;BME280;28306;55.744;37.578;2022-08-26T01:18:18;100459.44;;;27.35;36.60
42691;BME280;28306;55.744;37.578;2022-08-26T01:23:34;100479.75;;;27.44;36.48
42691;BME280;28306;55.744;37.578;2022-08-26T01:26:06;100484.66;;;27.42;36.73
42691;BME280;28306;55.744;37.578;2022-08-26T01:28:34;100489.31;;;27.42;36.67
42691;BME280;28306;55.744;37.578;2022-08-26T01:31:01;100480.50;;;27.35;37.26
42691;BME280;28306;55.744;37.578;2022-08-26T01:33:36;100479.16;;;27.37;37.52
42691;BME280;28306;55.744;37.578;2022-08-26T01:36:05;100473.91;;;27.30;36.85
42691;BME280;28306;55.744;37.578;2022-08-26T01:38:32;100481.56;;;27.33;36.77
42691;BME280;28306;55.744;37.578;2022-08-26T01:40:58;100476.63;;;27.30;36.91
42691;BME280;28306;55.744;37.578;2022-08-26T01:43:26;100481.03;;;27.31;37.05
42691;BME280;28306;55.744;37.578;2022-08-26T01:45:53;100485.66;;;27.31;37.11
42691;BME280;28306;55.744;37.578;2022-08-26T01:48:24;100476.03;;;27.28;37.28
42691;BME280;28306;55.744;37.578;2022-08-26T01:50:53;100462.06;;;27.20;37.32
42691;BME280;28306;55.744;37.578;2022-08-26T01:53:20;100486.41;;;27.26;37.31
42691;BME280;28306;55.744;37.578;2022-08-26T01:55:50;100469.94;;;27.16;37.59
42691;BME280;28306;55.744;37.578;2022-08-26T01:58:22;100490.19;;;27.20;37.34
42691;BME280;28306;55.744;37.578;2022-08-26T02:00:49;100475.97;;;27.18;37.60
42691;BME280;28306;55.744;37.578;2022-08-26T02:03:17;100489.38;;;27.20;37.71
42691;BME280;28306;55.744;37.578;2022-08-26T02:05:45;100487.16;;;27.17;37.81
42691;BME280;28306;55.744;37.578;2022-08-26T02:08:13;100489.06;;;27.16;38.02
42691;BME280;28306;55.744;37.578;2022-08-26T02:10:39;100470.94;;;27.05;37.78
42691;BME280;28306;55.744;37.578;2022-08-26T02:13:07;100493.16;;;27.13;38.00
42691;BME280;28306;55.744;37.578;2022-08-26T02:15:33;100467.28;;;26.94;38.13
42691;BME280;28306;55.744;37.578;2022-08-26T02:18:00;100480.22;;;27.04;38.13
42691;BME280;28306;55.744;37.578;2022-08-26T02:20:26;100495.56;;;27.10;38.15
42691;BME280;28306;55.744;37.578;2022-08-26T02:22:52;100484.03;;;27.03;38.32
42691;BME280;28306;55.744;37.578;2022-08-26T02:25:23;100488.72;;;27.07;38.30
42691;BME280;28306;55.744;37.578;2022-08-26T02:27:50;100490.88;;;27.05;38.28
42691;BME280;28306;55.744;37.578;2022-08-26T02:30:21;100492.50;;;27.01;38.40
42691;BME280;28306;55.744;37.578;2022-08-26T02:32:47;100479.09;;;27.00;38.50
42691;BME280;28306;55.744;37.578;2022-08-26T02:35:15;100478.72;;;26.91;38.37
42691;BME280;28306;55.744;37.578;2022-08-26T02:37:42;100492.50;;;27.01;38.49
42691;BME280;28306;55.744;37.578;2022-08-26T02:40:09;100492.50;;;27.01;38.61
42691;BME280;28306;55.744;37.578;2022-08-26T02:42:35;100483.16;;;26.97;38.79
42691;BME280;28306;55.744;37.578;2022-08-26T02:45:02;100490.84;;;27.00;38.64
42691;BME280;28306;55.744;37.578;2022-08-26T02:47:28;100496.00;;;26.96;38.79
42691;BME280;28306;55.744;37.578;2022-08-26T02:49:53;100478.19;;;26.89;38.97
42691;BME280;28306;55.744;37.578;2022-08-26T02:52:19;100489.47;;;26.97;38.92
42691;BME280;28306;55.744;37.578;2022-08-26T02:54:45;100488.31;;;26.93;39.00
42691;BME280;28306;55.744;37.578;2022-08-26T02:57:11;100478.66;;;26.81;39.03
42691;BME280;28306;55.744;37.578;2022-08-26T02:59:37;100492.66;;;26.89;38.94
42691;BME280;28306;55.744;37.578;2022-08-26T03:02:05;100501.16;;;26.93;38.63
42691;BME280;28306;55.744;37.578;2022-08-26T03:04:31;100489.09;;;26.89;39.14
42691;BME280;28306;55.744;37.578;2022-08-26T03:06:57;100505.78;;;26.92;39.06
42691;BME280;28306;55.744;37.578;2022-08-26T03:09:22;100503.63;;;26.94;38.99
42691;BME280;28306;55.744;37.578;2022-08-26T03:11:48;100497.06;;;26.95;39.05
42691;BME280;28306;55.744;37.578;2022-08-26T03:14:14;100486.63;;;26.87;39.10
42691;BME280;28306;55.744;37.578;2022-08-26T03:16:40;100499.53;;;26.97;39.19
42691;BME280;28306;55.744;37.578;2022-08-26T03:19:07;100501.16;;;26.93;39.15
42691;BME280;28306;55.744;37.578;2022-08-26T03:21:35;100500.38;;;26.97;39.25
42691;BME280;28306;55.744;37.578;2022-08-26T03:24:01;100499.28;;;26.98;39.56
42691;BME280;28306;55.744;37.578;2022-08-26T03:26:27;100504.75;;;26.98;39.44
42691;BME280;28306;55.744;37.578;2022-08-26T03:28:54;100506.97;;;27.02;39.44
42691;BME280;28306;55.744;37.578;2022-08-26T03:31:38;100496.84;;;27.02;39.53
42691;BME280;28306;55.744;37.578;2022-08-26T03:34:04;100498.78;;;27.02;39.51
42691;BME280;28306;55.744;37.578;2022-08-26T03:36:30;100504.22;;;27.02;39.53
42691;BME280;28306;55.744;37.578;2022-08-26T03:38:56;100485.88;;;26.97;39.46
42691;BME280;28306;55.744;37.578;2022-08-26T03:41:21;100494.94;;;26.97;39.31
42691;BME280;28306;55.744;37.578;2022-08-26T03:43:47;100499.59;;;27.02;39.16
42691;BME280;28306;55.744;37.578;2022-08-26T03:46:15;100502.13;;;27.09;39.33
42691;BME280;28306;55.744;37.578;2022-08-26T03:48:42;100504.28;;;27.07;39.19
42691;BME280;28306;55.744;37.578;2022-08-26T03:51:17;100502.69;;;27.11;39.09
42691;BME280;28306;55.744;37.578;2022-08-26T03:53:43;100496.59;;;27.04;38.96
42691;BME280;28306;55.744;37.578;2022-08-26T03:56:09;100474.41;;;26.95;38.55
42691;BME280;28306;55.744;37.578;2022-08-26T03:58:35;100505.66;;;27.09;38.90
42691;BME280;28306;55.744;37.578;2022-08-26T04:01:01;100500.22;;;27.09;38.67
42691;BME280;28306;55.744;37.578;2022-08-26T04:03:26;100508.16;;;27.11;38.52
42691;BME280;28306;55.744;37.578;2022-08-26T04:06:11;100505.97;;;27.13;38.55
42691;BME280;28306;55.744;37.578;2022-08-26T04:08:37;100495.03;;;27.13;38.55
42691;BME280;28306;55.744;37.578;2022-08-26T04:11:03;100499.72;;;27.18;38.58
42691;BME280;28306;55.744;37.578;2022-08-26T04:13:29;100504.94;;;27.19;38.21
42691;BME280;28306;55.744;37.578;2022-08-26T04:15:55;100505.78;;;27.20;38.19
42691;BME280;28306;55.744;37.578;2022-08-26T04:18:21;100493.72;;;27.15;38.17
42691;BME280;28306;55.744;37.578;2022-08-26T04:20:47;100512.41;;;27.29;37.79
42691;BME280;28306;55.744;37.578;2022-08-26T04:23:15;100507.47;;;27.26;37.82
42691;BME280;28306;55.744;37.578;2022-08-26T04:25:41;100514.66;;;27.32;37.73
42691;BME280;28306;55.744;37.578;2022-08-26T04:28:08;100501.22;;;27.30;37.78
42691;BME280;28306;55.744;37.578;2022-08-26T04:30:37;100512.22;;;27.36;37.63
42691;BME280;28306;55.744;37.578;2022-08-26T04:33:03;100515.75;;;27.36;37.44
42691;BME280;28306;55.744;37.578;2022-08-26T04:35:32;100519.63;;;27.40;37.40
42691;BME280;28306;55.744;37.578;2022-08-26T04:37:59;100525.38;;;27.44;37.94
42691;BME280;28306;55.744;37.578;2022-08-26T04:40:25;100516.63;;;27.42;37.51
42691;BME280;28306;55.744;37.578;2022-08-26T04:42:52;100516.38;;;27.43;37.39
42691;BME280;28306;55.744;37.578;2022-08-26T04:45:18;100518.06;;;27.49;37.31
42691;BME280;28306;55.744;37.578;2022-08-26T04:47:44;100518.63;;;27.51;37.35
42691;BME280;28306;55.744;37.578;2022-08-26T04:50:11;100518.91;;;27.55;37.31
42691;BME280;28306;55.744;37.578;2022-08-26T04:52:37;100520.84;;;27.60;37.36
42691;BME280;28306;55.744;37.578;2022-08-26T04:55:03;100521.69;;;27.60;37.34
42691;BME280;28306;55.744;37.578;2022-08-26T04:57:29;100515.38;;;27.60;36.85
42691;BME280;28306;55.744;37.578;2022-08-26T04:59:56;100518.44;;;27.63;37.21
42691;BME280;28306;55.744;37.578;2022-08-26T05:02:22;100520.06;;;27.64;36.96
42691;BME280;28306;55.744;37.578;2022-08-26T05:04:48;100513.25;;;27.67;36.78
42691;BME280;28306;55.744;37.578;2022-08-26T05:07:16;100508.88;;;27.66;36.58
42691;BME280;28306;55.744;37.578;2022-08-26T05:09:41;100523.44;;;27.77;36.38
42691;BME280;28306;55.744;37.578;2022-08-26T05:12:07;100524.25;;;27.77;36.44
42691;BME280;28306;55.744;37.578;2022-08-26T05:14:33;100519.34;;;27.79;36.31
42691;BME280;28306;55.744;37.578;2022-08-26T05:16:59;100512.22;;;27.78;36.25
42691;BME280;28306;55.744;37.578;2022-08-26T05:19:25;100519.94;;;27.86;35.89
42691;BME280;28306;55.744;37.578;2022-08-26T05:21:51;100524.88;;;27.90;36.04
42691;BME280;28306;55.744;37.578;2022-08-26T05:24:17;100521.59;;;27.93;35.88
42691;BME280;28306;55.744;37.578;2022-08-26T05:26:43;100524.34;;;27.93;35.78
42691;BME280;28306;55.744;37.578;2022-08-26T05:29:08;100521.09;;;27.96;35.56
42691;BME280;28306;55.744;37.578;2022-08-26T05:31:34;100532.06;;;28.01;35.62
42691;BME280;28306;55.744;37.578;2022-08-26T05:34:03;100529.66;;;28.04;35.55
42691;BME280;28306;55.744;37.578;2022-08-26T05:36:32;100534.84;;;28.06;35.56
42691;BME280;28306;55.744;37.578;2022-08-26T05:38:58;100535.13;;;28.10;35.34
42691;BME280;28306;55.744;37.578;2022-08-26T05:41:27;100531.31;;;28.11;35.31
42691;BME280;28306;55.744;37.578;2022-08-26T05:43:55;100526.13;;;28.09;35.15
42691;BME280;28306;55.744;37.578;2022-08-26T05:46:22;100542.00;;;28.17;34.91
42691;BME280;28306;55.744;37.578;2022-08-26T05:48:48;100543.41;;;28.20;35.07
42691;BME280;28306;55.744;37.578;2022-08-26T05:51:13;100539.00;;;28.19;35.10
42691;BME280;28306;55.744;37.578;2022-08-26T05:53:40;100534.41;;;28.25;34.71
42691;BME280;28306;55.744;37.578;2022-08-26T05:56:07;100537.69;;;28.27;34.80
42691;BME280;28306;55.744;37.578;2022-08-26T05:58:35;100536.06;;;28.31;34.50
42691;BME280;28306;55.744;37.578;2022-08-26T06:03:31;100531.97;;;28.33;34.44
42691;BME280;28306;55.744;37.578;2022-08-26T06:06:02;100535.81;;;28.37;34.36
42691;BME280;28306;55.744;37.578;2022-08-26T06:08:27;100531.44;;;28.41;34.29
42691;BME280;28306;55.744;37.578;2022-08-26T06:10:55;100533.91;;;28.43;34.02
42691;BME280;28306;55.744;37.578;2022-08-26T06:13:25;100525.41;;;28.39;34.12
42691;BME280;28306;55.744;37.578;2022-08-26T06:15:52;100534.22;;;28.47;34.10
42691;BME280;28306;55.744;37.578;2022-08-26T06:18:24;100532.84;;;28.49;34.29
42691;BME280;28306;55.744;37.578;2022-08-26T06:20:52;100533.94;;;28.53;33.88
42691;BME280;28306;55.744;37.578;2022-08-26T06:23:19;100534.50;;;28.55;33.71
42691;BME280;28306;55.744;37.578;2022-08-26T06:26:04;100533.94;;;28.53;33.59
42691;BME280;28306;55.744;37.578;2022-08-26T06:28:30;100525.75;;;28.53;33.44
42691;BME280;28306;55.744;37.578;2022-08-26T06:30:56;100537.84;;;28.63;33.35
42691;BME280;28306;55.744;37.578;2022-08-26T06:33:23;100541.94;;;28.65;33.13
42691;BME280;28306;55.744;37.578;2022-08-26T06:35:49;100521.97;;;28.60;33.11
42691;BME280;28306;55.744;37.578;2022-08-26T06:38:16;100528.25;;;28.65;33.08
42691;BME280;28306;55.744;37.578;2022-08-26T06:40:47;100546.91;;;28.73;32.70
42691;BME280;28306;55.744;37.578;2022-08-26T06:43:24;100537.31;;;28.76;33.09
42691;BME280;28306;55.744;37.578;2022-08-26T06:45:51;100542.84;;;28.81;32.86
42691;BME280;28306;55.744;37.578;2022-08-26T06:48:18;100532.97;;;28.80;32.30
42691;BME280;28306;55.744;37.578;2022-08-26T06:50:45;100532.41;;;28.78;32.63
42691;BME280;28306;55.744;37.578;2022-08-26T06:53:12;100541.19;;;28.85;32.31
42691;BME280;28306;55.744;37.578;2022-08-26T06:55:40;100543.91;;;28.85;32.01
42691;BME280;28306;55.744;37.578;2022-08-26T06:58:07;100540.63;;;28.88;32.38
42691;BME280;28306;55.744;37.578;2022-08-26T07:00:34;100536.28;;;28.92;32.57
42691;BME280;28306;55.744;37.578;2022-08-26T07:03:01;100535.47;;;28.97;32.22
42691;BME280;28306;55.744;37.578;2022-08-26T07:05:27;100522.84;;;28.91;32.23
42691;BME280;28306;55.744;37.578;2022-08-26T07:07:52;100517.38;;;28.91;32.05
42691;BME280;28306;55.744;37.578;2022-08-26T07:10:18;100529.16;;;29.07;31.93
42691;BME280;28306;55.744;37.578;2022-08-26T07:12:44;100524.50;;;29.02;31.93
42691;BME280;28306;55.744;37.578;2022-08-26T07:15:10;100532.16;;;29.10;31.88
42691;BME280;28306;55.744;37.578;2022-08-26T07:17:36;100517.66;;;29.10;32.25
42691;BME280;28306;55.744;37.578;2022-08-26T07:20:04;100528.06;;;29.18;31.92
42691;BME280;28306;55.744;37.578;2022-08-26T07:22:32;100523.19;;;29.20;32.02
42691;BME280;28306;55.744;37.578;2022-08-26T07:24:57;100520.97;;;29.27;32.09
42691;BME280;28306;55.744;37.578;2022-08-26T07:27:23;100523.44;;;29.34;32.16
42691;BME280;28306;55.744;37.578;2022-08-26T07:29:49;100527.00;;;29.40;32.01
42691;BME280;28306;55.744;37.578;2022-08-26T07:32:15;100527.56;;;29.42;31.81
42691;BME280;28306;55.744;37.578;2022-08-26T07:34:43;100532.22;;;29.46;31.96
42691;BME280;28306;55.744;37.578;2022-08-26T07:37:10;100533.84;;;29.53;31.99
42691;BME280;28306;55.744;37.578;2022-08-26T07:39:35;100535.75;;;29.57;31.79
42691;BME280;28306;55.744;37.578;2022-08-26T07:42:03;100534.13;;;29.61;31.86
42691;BME280;28306;55.744;37.578;2022-08-26T07:44:30;100511.09;;;29.57;31.91
42691;BME280;28306;55.744;37.578;2022-08-26T07:46:55;100529.19;;;29.74;32.06
42691;BME280;28306;55.744;37.578;2022-08-26T07:49:22;100522.03;;;29.78;31.72
42691;BME280;28306;55.744;37.578;2022-08-26T07:51:49;100519.03;;;29.79;31.67
42691;BME280;28306;55.744;37.578;2022-08-26T07:54:15;100514.38;;;29.80;31.50
42691;BME280;28306;55.744;37.578;2022-08-26T07:56:41;100518.19;;;29.84;31.83
42691;BME280;28306;55.744;37.578;2022-08-26T07:59:09;100522.31;;;29.87;31.90
42691;BME280;28306;55.744;37.578;2022-08-26T08:01:34;100510.81;;;29.85;31.97
42691;BME280;28306;55.744;37.578;2022-08-26T08:04:00;100524.75;;;29.93;31.87
42691;BME280;28306;55.744;37.578;2022-08-26T08:06:26;100519.84;;;29.95;31.79
42691;BME280;28306;55.744;37.578;2022-08-26T08:08:52;100481.47;;;29.80;31.76
42691;BME280;28306;55.744;37.578;2022-08-26T08:11:18;100521.44;;;30.01;31.82
42691;BME280;28306;55.744;37.578;2022-08-26T08:13:49;100522.53;;;30.06;31.53
42691;BME280;28306;55.744;37.578;2022-08-26T08:16:15;100509.91;;;30.05;31.51
42691;BME280;28306;55.744;37.578;2022-08-26T08:18:41;100497.59;;;30.02;31.65
42691;BME280;28306;55.744;37.578;2022-08-26T08:21:07;100514.28;;;30.16;31.64
42691;BME280;28306;55.744;37.578;2022-08-26T08:23:33;100507.94;;;30.15;31.88
42691;BME280;28306;55.744;37.578;2022-08-26T08:26:03;100517.00;;;30.21;31.66
42691;BME280;28306;55.744;37.578;2022-08-26T08:28:30;100518.38;;;30.24;31.36
42691;BME280;28306;55.744;37.578;2022-08-26T08:30:56;100519.72;;;30.26;31.33
42691;BME280;28306;55.744;37.578;2022-08-26T08:33:22;100514.78;;;30.28;31.22
42691;BME280;28306;55.744;37.578;2022-08-26T08:35:48;100512.84;;;30.29;31.31
42691;BME280;28306;55.744;37.578;2022-08-26T08:38:14;100516.13;;;30.31;30.93
42691;BME280;28306;55.744;37.578;2022-08-26T08:40:41;100511.44;;;30.31;30.75
42691;BME280;28306;55.744;37.578;2022-08-26T08:45:46;100507.31;;;30.39;31.28
42691;BME280;28306;55.744;37.578;2022-08-26T08:48:21;100499.09;;;30.34;30.76
42691;BME280;28306;55.744;37.578;2022-08-26T08:50:49;100503.47;;;30.40;31.14
42691;BME280;28306;55.744;37.578;2022-08-26T08:53:19;100500.97;;;30.44;31.24
42691;BME280;28306;55.744;37.578;2022-08-26T09:07:21;100490.81;;;30.49;30.89
42691;BME280;28306;55.744;37.578;2022-08-26T09:09:54;100509.13;;;30.59;31.08
42691;BME280;28306;55.744;37.578;2022-08-26T09:12:27;100498.44;;;30.58;30.42
42691;BME280;28306;55.744;37.578;2022-08-26T09:15:14;100506.94;;;30.61;31.14
42691;BME280;28306;55.744;37.578;2022-08-26T09:21:01;100497.81;;;30.71;30.92
42691;BME280;28306;55.744;37.578;2022-08-26T09:23:31;100502.22;;;30.67;31.04
42691;BME280;28306;55.744;37.578;2022-08-26T09:26:03;100495.34;;;30.69;30.48
42691;BME280;28306;55.744;37.578;2022-08-26T09:28:40;100500.84;;;30.69;30.73
42691;BME280;28306;55.744;37.578;2022-08-26T09:33:46;100500.28;;;30.72;30.28
42691;BME280;28306;55.744;37.578;2022-08-26T09:38:42;100498.06;;;30.75;30.48
42691;BME280;28306;55.744;37.578;2022-08-26T09:41:27;100492.81;;;30.78;30.25
42691;BME280;28306;55.744;37.578;2022-08-26T09:44:17;100486.78;;;30.76;29.57
42691;BME280;28306;55.744;37.578;2022-08-26T09:46:54;100480.22;;;30.72;29.72
42691;BME280;28306;55.744;37.578;2022-08-26T09:49:28;100493.94;;;30.77;29.43
42691;BME280;28306;55.744;37.578;2022-08-26T09:52:22;100478.53;;;30.76;30.07
42691;BME280;28306;55.744;37.578;2022-08-26T09:55:00;100487.53;;;30.87;29.72
42691;BME280;28306;55.744;37.578;2022-08-26T10:00:24;100489.72;;;30.90;30.68
42691;BME280;28306;55.744;37.578;2022-08-26T10:02:50;100487.25;;;30.88;31.84
42691;BME280;28306;55.744;37.578;2022-08-26T10:05:27;100488.34;;;30.93;31.44
42691;BME280;28306;55.744;37.578;2022-08-26T10:07:53;100479.81;;;30.94;32.18
42691;BME280;28306;55.744;37.578;2022-08-26T10:10:24;100490.22;;;30.97;33.47
42691;BME280;28306;55.744;37.578;2022-08-26T10:13:11;100448.78;;;30.88;32.42
42691;BME280;28306;55.744;37.578;2022-08-26T10:15:51;100482.78;;;31.03;33.38
42691;BME280;28306;55.744;37.578;2022-08-26T10:18:28;100480.81;;;31.08;32.63
42691;BME280;28306;55.744;37.578;2022-08-26T10:21:15;100486.56;;;31.12;34.32
42691;BME280;28306;55.744;37.578;2022-08-26T10:23:47;100458.84;;;31.03;35.56
42691;BME280;28306;55.744;37.578;2022-08-26T10:26:29;100474.97;;;31.15;34.77
42691;BME280;28306;55.744;37.578;2022-08-26T10:29:22;100474.63;;;31.22;33.56
42691;BME280;28306;55.744;37.578;2022-08-26T10:32:00;100462.03;;;31.21;33.63
42691;BME280;28306;55.744;37.578;2022-08-26T10:34:30;100460.66;;;31.18;33.27
42691;BME280;28306;55.744;37.578;2022-08-26T10:36:59;100457.63;;;31.20;34.18
42691;BME280;28306;55.744;37.578;2022-08-26T10:42:24;100454.03;;;31.49;33.34
42691;BME280;28306;55.744;37.578;2022-08-26T10:44:54;100453.66;;;31.31;32.86
42691;BME280;28306;55.744;37.578;2022-08-26T10:47:27;100457.22;;;31.32;33.16
42691;BME280;28306;55.744;37.578;2022-08-26T10:49:57;100444.94;;;31.24;32.69
42691;BME280;28306;55.744;37.578;2022-08-26T10:55:03;100435.78;;;31.34;28.68
42691;BME280;28306;55.744;37.578;2022-08-26T11:00:23;100443.44;;;31.37;30.32
42691;BME280;28306;55.744;37.578;2022-08-26T11:03:29;100444.25;;;31.37;31.28
42691;BME280;28306;55.744;37.578;2022-08-26T11:06:28;100441.69;;;31.46;31.24
42691;BME280;28306;55.744;37.578;2022-08-26T11:08:57;100440.91;;;31.40;30.98
42691;BME280;28306;55.744;37.578;2022-08-26T11:14:10;100431.28;;;31.43;30.53
42691;BME280;28306;55.744;37.578;2022-08-26T11:16:41;100446.41;;;31.40;30.62
42691;BME280;28306;55.744;37.578;2022-08-26T11:19:55;100436.00;;;31.37;30.31
42691;BME280;28306;55.744;37.578;2022-08-26T11:22:02;100438.75;;;31.37;30.65
42691;BME280;28306;55.744;37.578;2022-08-26T11:29:57;100432.25;;;31.28;30.24
42691;BME280;28306;55.744;37.578;2022-08-26T11:32:27;100425.44;;;31.20;29.74
42691;BME280;28306;55.744;37.578;2022-08-26T11:37:44;100429.25;;;31.24;29.86
42691;BME280;28306;55.744;37.578;2022-08-26T11:40:22;100425.41;;;31.25;29.78
42691;BME280;28306;55.744;37.578;2022-08-26T11:42:52;100420.16;;;31.29;29.40
42691;BME280;28306;55.744;37.578;2022-08-26T11:45:31;100418.91;;;31.40;29.71
42691;BME280;28306;55.744;37.578;2022-08-26T11:50:53;100406.44;;;31.53;29.01
42691;BME280;28306;55.744;37.578;2022-08-26T11:53:19;100406.63;;;31.62;29.02
42691;BME280;28306;55.744;37.578;2022-08-26T11:55:45;100409.81;;;31.69;28.49
42691;BME280;28306;55.744;37.578;2022-08-26T11:58:12;100409.22;;;31.72;28.58
42691;BME280;28306;55.744;37.578;2022-08-26T12:03:16;100405.44;;;31.68;28.57
42691;BME280;28306;55.744;37.578;2022-08-26T12:05:45;100411.25;;;31.67;28.70
42691;BME280;28306;55.744;37.578;2022-08-26T12:08:20;100403.81;;;31.67;28.40
42691;BME280;28306;55.744;37.578;2022-08-26T12:10:47;100401.56;;;31.69;28.35
42691;BME280;28306;55.744;37.578;2022-08-26T12:13:21;100407.63;;;31.71;28.14
42691;BME280;28306;55.744;37.578;2022-08-26T12:15:52;100399.56;;;31.75;27.68
42691;BME280;28306;55.744;37.578;2022-08-26T12:18:21;100386.72;;;31.70;27.83
42691;BME280;28306;55.744;37.578;2022-08-26T12:20:47;100389.03;;;31.82;28.17
42691;BME280;28306;55.744;37.578;2022-08-26T12:25:50;100379.91;;;31.87;27.80
42691;BME280;28306;55.744;37.578;2022-08-26T12:28:17;100388.09;;;31.92;27.42
42691;BME280;28306;55.744;37.578;2022-08-26T12:31:00;100390.75;;;31.97;27.74
42691;BME280;28306;55.744;37.578;2022-08-26T12:33:27;100392.28;;;32.27;27.04
42691;BME280;28306;55.744;37.578;2022-08-26T12:35:54;100385.47;;;33.10;26.05
42691;BME280;28306;55.744;37.578;2022-08-26T12:38:20;100381.75;;;33.89;25.08
42691;BME280;28306;55.744;37.578;2022-08-26T12:40:46;100387.06;;;34.58;24.06
42691;BME280;28306;55.744;37.578;2022-08-26T12:43:35;100381.19;;;35.28;23.95
42691;BME280;28306;55.744;37.578;2022-08-26T12:46:02;100373.63;;;35.60;22.98
42691;BME280;28306;55.744;37.578;2022-08-26T12:48:31;100384.00;;;36.03;22.55
42691;BME280;28306;55.744;37.578;2022-08-26T12:50:59;100380.78;;;36.36;22.11
42691;BME280;28306;55.744;37.578;2022-08-26T12:53:28;100380.44;;;36.64;21.84
42691;BME280;28306;55.744;37.578;2022-08-26T12:56:03;100376.31;;;36.87;21.37
42691;BME280;28306;55.744;37.578;2022-08-26T12:58:31;100374.13;;;37.10;21.32
42691;BME280;28306;55.744;37.578;2022-08-26T13:01:20;100370.09;;;37.46;21.02
42691;BME280;28306;55.744;37.578;2022-08-26T13:03:47;100373.28;;;37.57;20.62
42691;BME280;28306;55.744;37.578;2022-08-26T13:11:25;100377.72;;;38.09;20.30
42691;BME280;28306;55.744;37.578;2022-08-26T13:16:25;100374.13;;;38.30;19.73
42691;BME280;28306;55.744;37.578;2022-08-26T13:18:59;100368.34;;;38.35;19.79
42691;BME280;28306;55.744;37.578;2022-08-26T13:21:28;100365.22;;;38.36;19.56
42691;BME280;28306;55.744;37.578;2022-08-26T13:23:56;100363.31;;;38.49;19.63
42691;BME280;28306;55.744;37.578;2022-08-26T13:26:26;100342.00;;;38.53;19.44
42691;BME280;28306;55.744;37.578;2022-08-26T13:28:51;100352.41;;;38.78;19.30
42691;BME280;28306;55.744;37.578;2022-08-26T13:31:17;100361.91;;;38.89;19.32
42691;BME280;28306;55.744;37.578;2022-08-26T13:33:44;100348.94;;;38.93;19.19
42691;BME280;28306;55.744;37.578;2022-08-26T13:36:11;100351.16;;;39.00;18.98
42691;BME280;28306;55.744;37.578;2022-08-26T13:38:37;100352.09;;;39.04;18.91
42691;BME280;28306;55.744;37.578;2022-08-26T13:41:03;100346.44;;;39.00;18.81
42691;BME280;28306;55.744;37.578;2022-08-26T13:43:30;100352.38;;;39.11;18.60
42691;BME280;28306;55.744;37.578;2022-08-26T13:45:56;100347.03;;;39.18;18.94
42691;BME280;28306;55.744;37.578;2022-08-26T13:48:22;100335.44;;;39.16;18.77
42691;BME280;28306;55.744;37.578;2022-08-26T13:50:48;100352.00;;;39.25;18.62
42691;BME280;28306;55.744;37.578;2022-08-26T13:53:15;100347.63;;;39.24;18.58
42691;BME280;28306;55.744;37.578;2022-08-26T13:55:41;100340.78;;;39.21;18.61